Private Wetterstation Sandau
Wetterdaten: Montag, 26.11.2012
Datum Zeit Temp. A. Feuchte A. Luftdruck Regen Wind Richtung Richtung Taupunkt Windchill
26.11.2012 00:01 6,1 C 79 % 1011,7 hPa 0,0 l/m 7,2 km/h (2 Bft) W-SW 247 2,7 C 4,6 C
26.11.2012 00:06 6,1 C 79 % 1011,8 hPa 0,0 l/m 5,4 km/h (1 Bft) S-SW 202 2,7 C 5,2 C
26.11.2012 00:11 6,1 C 79 % 1011,8 hPa 0,0 l/m 11,2 km/h (2 Bft) W-SW 247 2,7 C 3,7 C
26.11.2012 00:16 6,1 C 79 % 1011,9 hPa 0,0 l/m 4,0 km/h (1 Bft) W-SW 247 2,7 C 6,1 C
26.11.2012 00:21 6,1 C 79 % 1011,9 hPa 0,0 l/m 9,4 km/h (2 Bft) W 270 2,7 C 4,1 C
26.11.2012 00:26 5,9 C 79 % 1011,9 hPa 0,0 l/m 8,6 km/h (2 Bft) SW 225 2,5 C 4,0 C
26.11.2012 00:31 5,9 C 79 % 1011,8 hPa 0,0 l/m 17,3 km/h (3 Bft) SW 225 2,5 C 2,5 C
26.11.2012 00:36 5,9 C 80 % 1011,9 hPa 0,0 l/m 10,4 km/h (2 Bft) S-SW 202 2,7 C 3,7 C
26.11.2012 00:41 6,0 C 80 % 1012,0 hPa 0,0 l/m 15,1 km/h (3 Bft) SW 225 2,8 C 3,0 C
26.11.2012 00:46 6,1 C 80 % 1011,8 hPa 0,0 l/m 9,4 km/h (2 Bft) S-SW 202 2,9 C 4,1 C
26.11.2012 00:51 6,1 C 80 % 1012,0 hPa 0,0 l/m 16,2 km/h (3 Bft) S 180 2,9 C 2,9 C
26.11.2012 00:56 6,0 C 80 % 1012,0 hPa 0,0 l/m 7,2 km/h (2 Bft) W-SW 247 2,8 C 4,5 C
26.11.2012 01:01 5,9 C 81 % 1012,0 hPa 0,0 l/m 17,3 km/h (3 Bft) SW 225 2,9 C 2,5 C
26.11.2012 01:06 6,1 C 81 % 1011,8 hPa 0,0 l/m 7,2 km/h (2 Bft) S 180 3,1 C 4,6 C
26.11.2012 01:11 6,1 C 81 % 1011,8 hPa 0,0 l/m 5,8 km/h (2 Bft) S 180 3,1 C 5,1 C
26.11.2012 01:16 6,2 C 80 % 1011,9 hPa 0,0 l/m 7,2 km/h (2 Bft) S-SW 202 3,0 C 4,8 C
26.11.2012 01:21 6,3 C 80 % 1011,9 hPa 0,0 l/m 12,2 km/h (2 Bft) S-SW 202 3,1 C 3,8 C
26.11.2012 01:26 6,4 C 80 % 1011,8 hPa 0,0 l/m 10,4 km/h (2 Bft) SW 225 3,2 C 4,3 C
26.11.2012 01:31 6,5 C 80 % 1011,7 hPa 0,0 l/m 12,6 km/h (3 Bft) S 180 3,3 C 4,0 C
26.11.2012 01:36 6,6 C 80 % 1011,8 hPa 0,0 l/m 18,0 km/h (3 Bft) S-SW 202 3,4 C 3,3 C
26.11.2012 01:41 6,6 C 79 % 1011,9 hPa 0,0 l/m 14,0 km/h (3 Bft) W-SW 247 3,2 C 3,9 C
26.11.2012 01:46 6,7 C 79 % 1011,8 hPa 0,0 l/m 17,3 km/h (3 Bft) W-SW 247 3,3 C 3,5 C
26.11.2012 01:51 6,7 C 79 % 1011,8 hPa 0,0 l/m 20,2 km/h (4 Bft) W 270 3,3 C 3,2 C
26.11.2012 01:56 6,8 C 79 % 1012,0 hPa 0,0 l/m 9,4 km/h (2 Bft) S 180 3,4 C 4,9 C
26.11.2012 02:01 6,8 C 79 % 1012,1 hPa 0,0 l/m 9,0 km/h (2 Bft) SW 225 3,4 C 5,0 C
26.11.2012 02:06 6,9 C 79 % 1012,1 hPa 0,0 l/m 12,6 km/h (3 Bft) W-SW 247 3,5 C 4,5 C
26.11.2012 02:11 6,9 C 79 % 1012,1 hPa 0,0 l/m 10,8 km/h (2 Bft) SW 225 3,5 C 4,8 C
26.11.2012 02:16 6,9 C 79 % 1012,0 hPa 0,0 l/m 19,1 km/h (3 Bft) S-SW 202 3,5 C 3,6 C
26.11.2012 02:21 7,0 C 78 % 1012,1 hPa 0,0 l/m 15,8 km/h (3 Bft) SW 225 3,4 C 4,1 C
26.11.2012 02:26 7,1 C 78 % 1012,1 hPa 0,0 l/m 16,6 km/h (3 Bft) SW 225 3,5 C 4,1 C
26.11.2012 02:31 7,0 C 78 % 1012,0 hPa 0,0 l/m 7,6 km/h (2 Bft) S 180 3,4 C 5,6 C
26.11.2012 02:36 6,9 C 78 % 1011,8 hPa 0,0 l/m 13,3 km/h (3 Bft) S-SW 202 3,3 C 4,3 C
26.11.2012 02:41 6,9 C 79 % 1011,8 hPa 0,0 l/m 13,7 km/h (3 Bft) SW 225 3,5 C 4,3 C
26.11.2012 02:46 6,8 C 79 % 1011,9 hPa 0,0 l/m 13,3 km/h (3 Bft) SW 225 3,4 C 4,2 C
26.11.2012 02:51 6,6 C 78 % 1011,9 hPa 0,0 l/m 6,5 km/h (2 Bft) SW 225 3,0 C 5,4 C
26.11.2012 02:56 6,5 C 78 % 1011,9 hPa 0,0 l/m 8,3 km/h (2 Bft) S-SW 202 2,9 C 4,8 C
26.11.2012 03:01 6,5 C 79 % 1011,9 hPa 0,0 l/m 14,8 km/h (3 Bft) S-SW 202 3,1 C 3,6 C
26.11.2012 03:06 6,4 C 79 % 1011,9 hPa 0,0 l/m 13,7 km/h (3 Bft) W-SW 247 3,0 C 3,7 C
26.11.2012 03:11 6,4 C 79 % 1012,1 hPa 0,0 l/m 14,0 km/h (3 Bft) SW 225 3,0 C 3,6 C
26.11.2012 03:16 6,4 C 79 % 1012,0 hPa 0,0 l/m 11,2 km/h (2 Bft) W-SW 247 3,0 C 4,1 C
26.11.2012 03:21 6,5 C 79 % 1012,0 hPa 0,0 l/m 13,7 km/h (3 Bft) S 180 3,1 C 3,8 C
26.11.2012 03:26 6,4 C 79 % 1012,0 hPa 0,0 l/m 17,6 km/h (3 Bft) SW 225 3,0 C 3,1 C
26.11.2012 03:31 6,4 C 79 % 1011,9 hPa 0,0 l/m 8,3 km/h (2 Bft) SW 225 3,0 C 4,7 C
26.11.2012 03:36 6,3 C 79 % 1011,8 hPa 0,0 l/m 6,1 km/h (2 Bft) W-SW 247 2,9 C 5,2 C
26.11.2012 03:41 6,2 C 79 % 1011,8 hPa 0,0 l/m 7,2 km/h (2 Bft) SW 225 2,8 C 4,8 C
26.11.2012 03:46 6,0 C 80 % 1011,9 hPa 0,0 l/m 7,9 km/h (2 Bft) S-SW 202 2,8 C 4,3 C
26.11.2012 03:51 5,8 C 80 % 1012,0 hPa 0,0 l/m 8,3 km/h (2 Bft) S-SW 202 2,6 C 4,0 C
26.11.2012 03:56 5,5 C 81 % 1012,0 hPa 0,0 l/m 4,7 km/h (1 Bft) S-SW 202 2,5 C 4,8 C
26.11.2012 04:01 5,3 C 81 % 1012,0 hPa 0,0 l/m 0,0 km/h (0 Bft) S 180 2,3 C 5,3 C
26.11.2012 04:06 5,2 C 81 % 1011,9 hPa 0,0 l/m 4,0 km/h (1 Bft) S-SW 202 2,2 C 5,2 C
26.11.2012 04:11 5,1 C 82 % 1012,0 hPa 0,0 l/m 6,5 km/h (2 Bft) S-SW 202 2,3 C 3,7 C
26.11.2012 04:16 5,0 C 82 % 1012,0 hPa 0,0 l/m 3,2 km/h (1 Bft) SW 225 2,2 C 5,0 C
26.11.2012 04:21 5,0 C 83 % 1012,0 hPa 0,0 l/m 4,7 km/h (1 Bft) S-SW 202 2,4 C 4,2 C
26.11.2012 04:26 4,9 C 83 % 1012,0 hPa 0,0 l/m 12,2 km/h (2 Bft) S-SW 202 2,3 C 2,1 C
26.11.2012 04:31 4,9 C 83 % 1012,2 hPa 0,0 l/m 4,0 km/h (1 Bft) S-SW 202 2,3 C 4,9 C
26.11.2012 04:36 4,7 C 83 % 1012,1 hPa 0,0 l/m 11,9 km/h (2 Bft) S-SW 202 2,1 C 1,9 C
26.11.2012 04:41 4,5 C 83 % 1012,0 hPa 0,0 l/m 5,4 km/h (1 Bft) S-SW 202 1,9 C 3,4 C
26.11.2012 04:46 4,4 C 83 % 1011,9 hPa 0,0 l/m 6,1 km/h (2 Bft) S 180 1,8 C 3,0 C
26.11.2012 04:51 4,3 C 84 % 1011,9 hPa 0,0 l/m 4,3 km/h (1 Bft) SW 225 1,8 C 4,3 C
26.11.2012 04:56 4,3 C 84 % 1011,8 hPa 0,0 l/m 8,3 km/h (2 Bft) S-SW 202 1,8 C 2,2 C
26.11.2012 05:01 4,1 C 84 % 1011,9 hPa 0,0 l/m 4,0 km/h (1 Bft) S 180 1,6 C 4,1 C
26.11.2012 05:06 4,1 C 84 % 1011,7 hPa 0,0 l/m 3,2 km/h (1 Bft) S-SW 202 1,6 C 4,1 C
26.11.2012 05:11 4,1 C 85 % 1011,7 hPa 0,0 l/m 9,0 km/h (2 Bft) SW 225 1,8 C 1,8 C
26.11.2012 05:16 3,9 C 85 % 1011,7 hPa 0,0 l/m 4,3 km/h (1 Bft) S-SW 202 1,6 C 3,9 C
26.11.2012 05:21 3,9 C 85 % 1011,7 hPa 0,0 l/m 3,2 km/h (1 Bft) S-SW 202 1,6 C 3,9 C
26.11.2012 05:26 3,9 C 85 % 1011,7 hPa 0,0 l/m 4,0 km/h (1 Bft) S-SO 157 1,6 C 3,9 C
26.11.2012 05:31 3,8 C 85 % 1011,7 hPa 0,0 l/m 0,0 km/h (0 Bft) S 180 1,5 C 3,8 C
26.11.2012 05:36 3,8 C 85 % 1011,6 hPa 0,0 l/m 6,5 km/h (2 Bft) S 180 1,5 C 2,2 C
26.11.2012 05:41 3,6 C 85 % 1011,6 hPa 0,0 l/m 10,1 km/h (2 Bft) W-SW 247 1,3 C 1,0 C
26.11.2012 05:46 3,6 C 86 % 1011,6 hPa 0,0 l/m 7,2 km/h (2 Bft) S-SW 202 1,5 C 1,7 C
26.11.2012 05:51 3,6 C 86 % 1011,5 hPa 0,0 l/m 2,2 km/h (1 Bft) S-SO 157 1,5 C 3,6 C
26.11.2012 05:56 3,6 C 86 % 1011,6 hPa 0,0 l/m 2,9 km/h (1 Bft) S 180 1,5 C 3,6 C
26.11.2012 06:01 3,6 C 86 % 1011,7 hPa 0,0 l/m 4,7 km/h (1 Bft) S 180 1,5 C 2,6 C
26.11.2012 06:06 3,5 C 86 % 1011,7 hPa 0,0 l/m 8,3 km/h (2 Bft) S-SW 202 1,4 C 1,3 C
26.11.2012 06:11 3,5 C 86 % 1011,7 hPa 0,0 l/m 7,6 km/h (2 Bft) SW 225 1,4 C 1,5 C
26.11.2012 06:16 3,5 C 87 % 1011,8 hPa 0,0 l/m 5,8 km/h (2 Bft) S-SW 202 1,5 C 2,1 C
26.11.2012 06:21 3,4 C 87 % 1011,8 hPa 0,0 l/m 3,6 km/h (1 Bft) S 180 1,4 C 3,4 C
26.11.2012 06:26 3,4 C 87 % 1011,8 hPa 0,0 l/m 6,1 km/h (2 Bft) S-SW 202 1,4 C 1,8 C
26.11.2012 06:31 3,4 C 87 % 1011,7 hPa 0,0 l/m 4,0 km/h (1 Bft) S-SW 202 1,4 C 3,4 C
26.11.2012 06:36 3,3 C 87 % 1011,7 hPa 0,0 l/m 3,6 km/h (1 Bft) S-SW 202 1,3 C 3,3 C
26.11.2012 06:41 3,3 C 87 % 1011,7 hPa 0,0 l/m 10,4 km/h (2 Bft) SW 225 1,3 C 0,5 C
26.11.2012 06:46 3,2 C 87 % 1011,7 hPa 0,0 l/m 3,2 km/h (1 Bft) S 180 1,2 C 3,2 C
26.11.2012 06:51 3,1 C 87 % 1011,7 hPa 0,0 l/m 3,2 km/h (1 Bft) S 180 1,2 C 3,1 C
26.11.2012 06:56 3,0 C 87 % 1011,6 hPa 0,0 l/m 4,0 km/h (1 Bft) S-SO 157 1,1 C 3,0 C
26.11.2012 07:01 3,0 C 87 % 1011,6 hPa 0,0 l/m 0,0 km/h (0 Bft) S-SO 157 1,1 C 3,0 C
26.11.2012 07:06 2,9 C 87 % 1011,7 hPa 0,0 l/m 4,3 km/h (1 Bft) S-SW 202 1,0 C 2,9 C
26.11.2012 07:11 2,9 C 87 % 1011,7 hPa 0,0 l/m 7,2 km/h (2 Bft) S 180 1,0 C 0,9 C
26.11.2012 07:16 2,9 C 88 % 1011,7 hPa 0,0 l/m 3,2 km/h (1 Bft) S 180 1,1 C 2,9 C
26.11.2012 07:21 2,9 C 88 % 1011,7 hPa 0,0 l/m 5,0 km/h (1 Bft) S-SO 157 1,1 C 1,7 C
26.11.2012 07:26 2,9 C 88 % 1011,7 hPa 0,0 l/m 5,8 km/h (2 Bft) SO 135 1,1 C 1,4 C
26.11.2012 07:31 2,9 C 88 % 1011,8 hPa 0,0 l/m 4,7 km/h (1 Bft) SW 225 1,1 C 1,8 C
26.11.2012 07:36 2,9 C 88 % 1011,7 hPa 0,0 l/m 7,6 km/h (2 Bft) S-SW 202 1,1 C 0,8 C
26.11.2012 07:41 2,9 C 88 % 1011,7 hPa 0,0 l/m 14,4 km/h (3 Bft) S-SW 202 1,1 C -0,7 C
26.11.2012 07:46 2,9 C 88 % 1011,7 hPa 0,0 l/m 2,9 km/h (1 Bft) S 180 1,1 C 2,9 C
26.11.2012 07:51 2,8 C 88 % 1011,8 hPa 0,0 l/m 3,6 km/h (1 Bft) S-SW 202 1,0 C 2,8 C
26.11.2012 07:56 2,8 C 88 % 1011,9 hPa 0,0 l/m 13,7 km/h (3 Bft) S-SW 202 1,0 C -0,7 C
26.11.2012 08:01 2,8 C 88 % 1012,0 hPa 0,0 l/m 2,9 km/h (1 Bft) S 180 1,0 C 2,8 C
26.11.2012 08:06 2,8 C 89 % 1011,9 hPa 0,0 l/m 2,9 km/h (1 Bft) SW 225 1,2 C 2,8 C
26.11.2012 08:11 2,8 C 89 % 1011,8 hPa 0,0 l/m 7,6 km/h (2 Bft) SW 225 1,2 C 0,7 C
26.11.2012 08:16 2,8 C 89 % 1012,0 hPa 0,0 l/m 6,1 km/h (2 Bft) S-SO 157 1,2 C 1,2 C
26.11.2012 08:21 2,8 C 89 % 1012,1 hPa 0,0 l/m 4,3 km/h (1 Bft) S 180 1,2 C 2,8 C
26.11.2012 08:26 2,8 C 89 % 1012,0 hPa 0,0 l/m 5,4 km/h (1 Bft) S-SW 202 1,2 C 1,4 C
26.11.2012 08:31 2,8 C 89 % 1012,0 hPa 0,0 l/m 9,4 km/h (2 Bft) S-SO 157 1,2 C 0,2 C
26.11.2012 08:36 2,8 C 89 % 1012,0 hPa 0,0 l/m 4,7 km/h (1 Bft) S-SW 202 1,2 C 1,7 C
26.11.2012 08:41 2,8 C 89 % 1012,1 hPa 0,0 l/m 14,8 km/h (3 Bft) SW 225 1,2 C -0,9 C
26.11.2012 08:46 2,9 C 89 % 1012,1 hPa 0,0 l/m 4,0 km/h (1 Bft) S 180 1,3 C 2,9 C
26.11.2012 08:51 2,9 C 89 % 1011,9 hPa 0,0 l/m 7,6 km/h (2 Bft) S-SO 157 1,3 C 0,8 C
26.11.2012 08:56 3,0 C 89 % 1012,0 hPa 0,0 l/m 5,0 km/h (1 Bft) W-SW 247 1,4 C 1,8 C
26.11.2012 09:01 3,0 C 89 % 1012,1 hPa 0,0 l/m 2,5 km/h (1 Bft) S-SW 202 1,4 C 3,0 C
26.11.2012 09:06 3,2 C 89 % 1012,0 hPa 0,0 l/m 1,4 km/h (1 Bft) W-SW 247 1,6 C 3,2 C
26.11.2012 09:11 3,3 C 89 % 1012,0 hPa 0,0 l/m 6,1 km/h (2 Bft) SW 225 1,7 C 1,7 C
26.11.2012 09:16 3,4 C 89 % 1012,0 hPa 0,0 l/m 5,8 km/h (2 Bft) W-SW 247 1,8 C 2,0 C
26.11.2012 09:21 3,6 C 89 % 1012,0 hPa 0,0 l/m 9,7 km/h (2 Bft) S-SW 202 2,0 C 1,1 C
26.11.2012 09:26 4,1 C 90 % 1011,7 hPa 0,0 l/m 3,6 km/h (1 Bft) S-SO 157 2,6 C 4,1 C
26.11.2012 09:31 5,0 C 90 % 1011,9 hPa 0,0 l/m 6,1 km/h (2 Bft) S-SO 157 3,5 C 3,7 C
26.11.2012 09:36 6,1 C 89 % 1012,0 hPa 0,0 l/m 9,0 km/h (2 Bft) S-SO 157 4,4 C 4,2 C
26.11.2012 09:41 6,8 C 86 % 1011,9 hPa 0,0 l/m 4,7 km/h (1 Bft) W-SW 247 4,6 C 6,2 C
26.11.2012 09:46 7,2 C 83 % 1011,8 hPa 0,0 l/m 6,1 km/h (2 Bft) S-SW 202 4,5 C 6,2 C
26.11.2012 09:51 7,6 C 82 % 1012,0 hPa 0,0 l/m 7,2 km/h (2 Bft) S-SW 202 4,7 C 6,4 C
26.11.2012 09:56 7,8 C 80 % 1012,0 hPa 0,0 l/m 4,0 km/h (1 Bft) S-SO 157 4,6 C 7,8 C
26.11.2012 10:01 7,9 C 79 % 1011,9 hPa 0,0 l/m 7,2 km/h (2 Bft) SW 225 4,5 C 6,7 C
26.11.2012 10:06 7,9 C 78 % 1011,8 hPa 0,0 l/m 4,0 km/h (1 Bft) W-SW 247 4,3 C 7,9 C
26.11.2012 10:11 8,1 C 78 % 1011,7 hPa 0,0 l/m 5,4 km/h (1 Bft) S-SO 157 4,5 C 7,5 C
26.11.2012 10:16 8,2 C 77 % 1011,7 hPa 0,0 l/m 11,2 km/h (2 Bft) SW 225 4,4 C 6,3 C
26.11.2012 10:21 8,3 C 77 % 1011,6 hPa 0,0 l/m 1,4 km/h (1 Bft) S-SO 157 4,5 C 8,3 C
26.11.2012 10:26 8,5 C 77 % 1011,5 hPa 0,0 l/m 7,9 km/h (2 Bft) S-SW 202 4,7 C 7,3 C
26.11.2012 10:31 8,7 C 75 % 1011,5 hPa 0,0 l/m 4,0 km/h (1 Bft) S 180 4,5 C 8,7 C
26.11.2012 10:36 8,8 C 75 % 1011,4 hPa 0,0 l/m 4,0 km/h (1 Bft) S-SO 157 4,6 C 8,8 C
26.11.2012 10:41 8,8 C 75 % 1011,5 hPa 0,0 l/m 5,4 km/h (1 Bft) S-SW 202 4,6 C 8,3 C
26.11.2012 10:46 8,8 C 75 % 1011,3 hPa 0,0 l/m 2,5 km/h (1 Bft) SO 135 4,6 C 8,8 C
26.11.2012 10:51 8,7 C 75 % 1011,3 hPa 0,0 l/m 2,9 km/h (1 Bft) S-SO 157 4,5 C 8,7 C
26.11.2012 10:56 8,8 C 75 % 1011,2 hPa 0,0 l/m 0,0 km/h (0 Bft) S-SW 202 4,6 C 8,8 C
26.11.2012 11:01 8,7 C 75 % 1011,2 hPa 0,0 l/m 2,2 km/h (1 Bft) SW 225 4,5 C 8,7 C
26.11.2012 11:06 8,6 C 75 % 1011,1 hPa 0,0 l/m 4,7 km/h (1 Bft) S 180 4,4 C 8,3 C
26.11.2012 11:11 8,6 C 75 % 1011,1 hPa 0,0 l/m 2,2 km/h (1 Bft) S-SO 157 4,4 C 8,6 C
26.11.2012 11:16 8,6 C 75 % 1011,1 hPa 0,0 l/m 7,9 km/h (2 Bft) S-SO 157 4,4 C 7,4 C
26.11.2012 11:21 8,6 C 75 % 1011,0 hPa 0,0 l/m 4,0 km/h (1 Bft) S-SW 202 4,4 C 8,6 C
26.11.2012 11:26 8,5 C 74 % 1010,9 hPa 0,0 l/m 5,0 km/h (1 Bft) S-SO 157 4,1 C 8,1 C
26.11.2012 11:31 8,3 C 74 % 1010,9 hPa 0,0 l/m 3,2 km/h (1 Bft) S 180 3,9 C 8,3 C
26.11.2012 11:36 8,2 C 75 % 1010,7 hPa 0,0 l/m 2,5 km/h (1 Bft) S-SW 202 4,0 C 8,2 C
26.11.2012 11:41 8,1 C 75 % 1010,7 hPa 0,0 l/m 0,0 km/h (0 Bft) S-SW 202 3,9 C 8,1 C
26.11.2012 11:46 8,1 C 76 % 1010,6 hPa 0,0 l/m 5,0 km/h (1 Bft) S-SW 202 4,1 C 7,6 C
26.11.2012 11:51 8,0 C 76 % 1010,6 hPa 0,0 l/m 4,3 km/h (1 Bft) S-SO 157 4,0 C 8,0 C
26.11.2012 11:56 7,9 C 76 % 1010,5 hPa 0,0 l/m 2,9 km/h (1 Bft) SO 135 3,9 C 7,9 C
26.11.2012 12:01 8,1 C 76 % 1010,4 hPa 0,0 l/m 5,0 km/h (1 Bft) S 180 4,1 C 7,6 C
26.11.2012 12:06 8,1 C 77 % 1010,1 hPa 0,0 l/m 5,0 km/h (1 Bft) SO 135 4,3 C 7,6 C
26.11.2012 12:11 8,3 C 77 % 1009,9 hPa 0,0 l/m 5,4 km/h (1 Bft) SW 225 4,5 C 7,7 C
26.11.2012 12:16 8,4 C 76 % 1010,0 hPa 0,0 l/m 14,0 km/h (3 Bft) S-SO 157 4,4 C 6,1 C
26.11.2012 12:21 8,4 C 76 % 1010,0 hPa 0,0 l/m 8,3 km/h (2 Bft) S 180 4,4 C 7,1 C
26.11.2012 12:26 8,4 C 76 % 1009,9 hPa 0,0 l/m 5,0 km/h (1 Bft) S 180 4,4 C 7,9 C
26.11.2012 12:31 8,4 C 76 % 1009,9 hPa 0,0 l/m 2,2 km/h (1 Bft) S-SO 157 4,4 C 8,4 C
26.11.2012 12:36 8,4 C 76 % 1009,8 hPa 0,0 l/m 2,9 km/h (1 Bft) S-SO 157 4,4 C 8,4 C
26.11.2012 12:41 8,5 C 76 % 1009,8 hPa 0,0 l/m 2,5 km/h (1 Bft) S 180 4,5 C 8,5 C
26.11.2012 12:46 8,6 C 76 % 1009,7 hPa 0,0 l/m 7,2 km/h (2 Bft) SO 135 4,6 C 7,5 C
26.11.2012 12:51 8,7 C 76 % 1009,4 hPa 0,0 l/m 7,6 km/h (2 Bft) S-SO 157 4,7 C 7,6 C
26.11.2012 12:56 8,8 C 75 % 1009,4 hPa 0,0 l/m 1,8 km/h (1 Bft) S 180 4,6 C 8,8 C
26.11.2012 13:01 8,8 C 75 % 1009,3 hPa 0,0 l/m 6,1 km/h (2 Bft) SO 135 4,6 C 8,1 C
26.11.2012 13:06 8,9 C 75 % 1009,2 hPa 0,0 l/m 9,0 km/h (2 Bft) S-SO 157 4,7 C 7,5 C
26.11.2012 13:11 9,0 C 75 % 1009,2 hPa 0,0 l/m 2,5 km/h (1 Bft) SO 135 4,8 C 9,0 C
26.11.2012 13:16 9,0 C 76 % 1009,3 hPa 0,0 l/m 4,7 km/h (1 Bft) SO 135 5,0 C 8,7 C
26.11.2012 13:21 9,1 C 76 % 1009,3 hPa 0,0 l/m 2,5 km/h (1 Bft) S-SO 157 5,1 C 9,1 C
26.11.2012 13:26 9,1 C 76 % 1009,1 hPa 0,0 l/m 0,0 km/h (0 Bft) S-SO 157 5,1 C 9,1 C
26.11.2012 13:31 9,1 C 76 % 1009,3 hPa 0,0 l/m 3,6 km/h (1 Bft) S-SW 202 5,1 C 9,1 C
26.11.2012 13:36 9,1 C 75 % 1009,2 hPa 0,0 l/m 5,0 km/h (1 Bft) S 180 4,9 C 8,7 C
26.11.2012 13:41 9,1 C 75 % 1009,1 hPa 0,0 l/m 5,8 km/h (2 Bft) S 180 4,9 C 8,5 C
26.11.2012 13:46 9,1 C 75 % 1009,1 hPa 0,0 l/m 3,2 km/h (1 Bft) S 180 4,9 C 9,1 C
26.11.2012 13:51 9,1 C 75 % 1008,9 hPa 0,0 l/m 2,2 km/h (1 Bft) S 180 4,9 C 9,1 C
26.11.2012 13:56 9,1 C 75 % 1008,9 hPa 0,0 l/m 4,3 km/h (1 Bft) SO 135 4,9 C 9,1 C
26.11.2012 14:01 9,0 C 75 % 1008,7 hPa 0,0 l/m 6,8 km/h (2 Bft) SO 135 4,8 C 8,1 C
26.11.2012 14:06 9,0 C 75 % 1008,7 hPa 0,0 l/m 6,8 km/h (2 Bft) SO 135 4,8 C 8,1 C
26.11.2012 14:11 8,9 C 75 % 1008,7 hPa 0,0 l/m 2,2 km/h (1 Bft) S-SO 157 4,7 C 8,9 C
26.11.2012 14:16 8,9 C 75 % 1008,6 hPa 0,0 l/m 3,2 km/h (1 Bft) S-SO 157 4,7 C 8,9 C
26.11.2012 14:21 8,9 C 76 % 1008,4 hPa 0,0 l/m 0,0 km/h (0 Bft) SO 135 4,9 C 8,9 C
26.11.2012 14:26 8,9 C 76 % 1008,2 hPa 0,0 l/m 2,5 km/h (1 Bft) O-SO 112 4,9 C 8,9 C
26.11.2012 14:31 8,9 C 76 % 1008,1 hPa 0,0 l/m 3,6 km/h (1 Bft) S-SO 157 4,9 C 8,9 C
26.11.2012 14:36 8,8 C 76 % 1008,1 hPa 0,0 l/m 5,8 km/h (2 Bft) SO 135 4,8 C 8,1 C
26.11.2012 14:41 8,8 C 77 % 1008,1 hPa 0,0 l/m 5,0 km/h (1 Bft) O-SO 112 5,0 C 8,4 C
26.11.2012 14:46 8,8 C 76 % 1007,9 hPa 0,0 l/m 2,2 km/h (1 Bft) SO 135 4,8 C 8,8 C
26.11.2012 14:51 8,8 C 76 % 1007,8 hPa 0,0 l/m 6,1 km/h (2 Bft) S-SO 157 4,8 C 8,1 C
26.11.2012 14:56 8,8 C 76 % 1007,8 hPa 0,0 l/m 4,3 km/h (1 Bft) SO 135 4,8 C 8,8 C
26.11.2012 15:01 8,7 C 77 % 1007,7 hPa 0,0 l/m 4,0 km/h (1 Bft) O-SO 112 4,9 C 8,7 C
26.11.2012 15:06 8,7 C 77 % 1007,8 hPa 0,0 l/m 6,5 km/h (2 Bft) SO 135 4,9 C 7,8 C
26.11.2012 15:11 8,7 C 77 % 1007,8 hPa 0,0 l/m 4,3 km/h (1 Bft) SO 135 4,9 C 8,7 C
26.11.2012 15:16 9,0 C 77 % 1007,8 hPa 0,0 l/m 3,6 km/h (1 Bft) SO 135 5,2 C 9,0 C
26.11.2012 15:21 9,4 C 77 % 1007,6 hPa 0,0 l/m 2,5 km/h (1 Bft) O-SO 112 5,6 C 9,4 C
26.11.2012 15:26 9,9 C 76 % 1007,7 hPa 0,0 l/m 10,1 km/h (2 Bft) SO 135 5,9 C 8,5 C
26.11.2012 15:31 10,4 C 74 % 1007,5 hPa 0,0 l/m 4,3 km/h (1 Bft) SO 135 6,0 C 10,4 C
26.11.2012 15:36 10,6 C 73 % 1007,6 hPa 0,0 l/m 2,5 km/h (1 Bft) SO 135 6,0 C 10,6 C
26.11.2012 15:41 10,7 C 72 % 1007,5 hPa 0,0 l/m 2,2 km/h (1 Bft) O-SO 112 5,9 C 10,7 C
26.11.2012 15:46 10,7 C 72 % 1007,6 hPa 0,0 l/m 6,1 km/h (2 Bft) O-SO 112 5,9 C 10,7 C
26.11.2012 15:51 10,6 C 72 % 1007,4 hPa 0,0 l/m 3,6 km/h (1 Bft) O-SO 112 5,8 C 10,6 C
26.11.2012 15:56 10,6 C 72 % 1007,5 hPa 0,0 l/m 3,6 km/h (1 Bft) SO 135 5,8 C 10,6 C
26.11.2012 16:01 10,5 C 73 % 1007,4 hPa 0,0 l/m 2,9 km/h (1 Bft) SO 135 5,9 C 10,5 C
26.11.2012 16:06 10,3 C 75 % 1007,3 hPa 0,0 l/m 3,2 km/h (1 Bft) O-SO 112 6,1 C 10,3 C
26.11.2012 16:11 10,1 C 76 % 1007,3 hPa 0,0 l/m 6,5 km/h (2 Bft) S-SO 157 6,1 C 10,1 C
26.11.2012 16:16 9,9 C 76 % 1007,3 hPa 0,0 l/m 4,3 km/h (1 Bft) SO 135 5,9 C 9,9 C
26.11.2012 16:21 9,6 C 76 % 1007,2 hPa 0,0 l/m 5,4 km/h (1 Bft) SO 135 5,6 C 9,2 C
26.11.2012 16:26 9,5 C 77 % 1007,3 hPa 0,0 l/m 5,4 km/h (1 Bft) O-SO 112 5,7 C 9,1 C
26.11.2012 16:31 9,3 C 77 % 1007,1 hPa 0,0 l/m 4,0 km/h (1 Bft) SO 135 5,5 C 9,3 C
26.11.2012 16:36 9,2 C 79 % 1007,0 hPa 0,0 l/m 4,0 km/h (1 Bft) O-SO 112 5,8 C 9,2 C
26.11.2012 16:41 9,0 C 79 % 1006,9 hPa 0,0 l/m 8,6 km/h (2 Bft) O-SO 112 5,6 C 7,7 C
26.11.2012 16:46 8,9 C 80 % 1006,9 hPa 0,0 l/m 4,0 km/h (1 Bft) SO 135 5,6 C 8,9 C
26.11.2012 16:51 8,8 C 80 % 1006,8 hPa 0,0 l/m 4,0 km/h (1 Bft) S-SO 157 5,5 C 8,8 C
26.11.2012 16:56 8,8 C 80 % 1006,6 hPa 0,0 l/m 7,6 km/h (2 Bft) O-SO 112 5,5 C 7,7 C
26.11.2012 17:01 8,6 C 80 % 1006,7 hPa 0,0 l/m 6,8 km/h (2 Bft) SO 135 5,3 C 7,6 C
26.11.2012 17:06 8,5 C 80 % 1006,5 hPa 0,0 l/m 3,2 km/h (1 Bft) SO 135 5,3 C 8,5 C
26.11.2012 17:11 8,5 C 80 % 1006,4 hPa 0,0 l/m 3,6 km/h (1 Bft) S-SO 157 5,3 C 8,5 C
26.11.2012 17:16 8,4 C 81 % 1006,3 hPa 0,0 l/m 7,9 km/h (2 Bft) SO 135 5,3 C 7,2 C
26.11.2012 17:21 8,4 C 81 % 1006,2 hPa 0,0 l/m 7,2 km/h (2 Bft) SO 135 5,3 C 7,3 C
26.11.2012 17:26 8,4 C 81 % 1006,2 hPa 0,0 l/m 6,1 km/h (2 Bft) O-SO 112 5,3 C 7,6 C
26.11.2012 17:31 8,3 C 81 % 1006,2 hPa 0,0 l/m 5,4 km/h (1 Bft) S-SO 157 5,2 C 7,7 C
26.11.2012 17:36 8,3 C 81 % 1006,0 hPa 0,0 l/m 4,7 km/h (1 Bft) SO 135 5,2 C 7,9 C
26.11.2012 17:41 8,3 C 81 % 1006,0 hPa 0,0 l/m 9,0 km/h (2 Bft) SO 135 5,2 C 6,8 C
26.11.2012 17:46 8,2 C 81 % 1005,9 hPa 0,0 l/m 4,3 km/h (1 Bft) O-SO 112 5,1 C 8,2 C
26.11.2012 17:51 8,2 C 81 % 1005,8 hPa 0,0 l/m 7,6 km/h (2 Bft) SO 135 5,1 C 7,0 C
26.11.2012 17:56 8,2 C 81 % 1006,0 hPa 0,0 l/m 6,1 km/h (2 Bft) SO 135 5,1 C 7,4 C
26.11.2012 18:01 8,2 C 81 % 1006,0 hPa 0,0 l/m 4,0 km/h (1 Bft) S-SO 157 5,1 C 8,2 C
26.11.2012 18:06 8,3 C 81 % 1005,9 hPa 0,0 l/m 3,2 km/h (1 Bft) S-SO 157 5,2 C 8,3 C
26.11.2012 18:11 8,3 C 81 % 1006,0 hPa 0,0 l/m 11,9 km/h (2 Bft) SO 135 5,2 C 6,3 C
26.11.2012 18:16 8,3 C 80 % 1005,9 hPa 0,0 l/m 3,2 km/h (1 Bft) SO 135 5,1 C 8,3 C
26.11.2012 18:21 8,2 C 80 % 1005,6 hPa 0,0 l/m 3,2 km/h (1 Bft) O-SO 112 5,0 C 8,2 C
26.11.2012 18:26 8,2 C 80 % 1005,7 hPa 0,0 l/m 8,3 km/h (2 Bft) SO 135 5,0 C 6,8 C
26.11.2012 18:31 8,2 C 80 % 1005,6 hPa 0,0 l/m 2,9 km/h (1 Bft) SO 135 5,0 C 8,2 C
26.11.2012 18:36 8,2 C 80 % 1005,6 hPa 0,0 l/m 4,7 km/h (1 Bft) SO 135 5,0 C 7,8 C
26.11.2012 18:41 8,1 C 80 % 1005,6 hPa 0,0 l/m 7,6 km/h (2 Bft) SO 135 4,9 C 6,9 C
26.11.2012 18:46 8,1 C 80 % 1005,7 hPa 0,0 l/m 4,7 km/h (1 Bft) S-SO 157 4,9 C 7,7 C
26.11.2012 18:51 8,1 C 80 % 1005,5 hPa 0,0 l/m 4,7 km/h (1 Bft) SO 135 4,9 C 7,7 C
26.11.2012 18:56 8,2 C 80 % 1005,5 hPa 0,0 l/m 6,1 km/h (2 Bft) SO 135 5,0 C 7,4 C
26.11.2012 19:01 8,2 C 80 % 1005,5 hPa 0,0 l/m 3,2 km/h (1 Bft) O-SO 112 5,0 C 8,2 C
26.11.2012 19:06 8,2 C 80 % 1005,4 hPa 0,0 l/m 3,6 km/h (1 Bft) O-SO 112 5,0 C 8,2 C
26.11.2012 19:11 8,2 C 80 % 1005,3 hPa 0,0 l/m 5,0 km/h (1 Bft) SO 135 5,0 C 7,7 C
26.11.2012 19:16 8,1 C 80 % 1005,2 hPa 0,0 l/m 3,6 km/h (1 Bft) SO 135 4,9 C 8,1 C
26.11.2012 19:21 8,1 C 81 % 1005,2 hPa 0,0 l/m 2,5 km/h (1 Bft) SO 135 5,0 C 8,1 C
26.11.2012 19:26 8,1 C 81 % 1005,1 hPa 0,0 l/m 4,0 km/h (1 Bft) O-SO 112 5,0 C 8,1 C
26.11.2012 19:31 8,1 C 81 % 1005,1 hPa 0,0 l/m 2,9 km/h (1 Bft) O-SO 112 5,0 C 8,1 C
26.11.2012 19:36 8,1 C 81 % 1005,0 hPa 0,0 l/m 0,0 km/h (0 Bft) O-SO 112 5,0 C 8,1 C
26.11.2012 19:41 8,1 C 81 % 1004,9 hPa 0,0 l/m 0,0 km/h (0 Bft) SO 135 5,0 C 8,1 C
26.11.2012 19:46 8,1 C 81 % 1004,8 hPa 0,0 l/m 4,0 km/h (1 Bft) SO 135 5,0 C 8,1 C
26.11.2012 19:51 8,1 C 82 % 1004,8 hPa 0,0 l/m 5,0 km/h (1 Bft) O-SO 112 5,2 C 7,6 C
26.11.2012 19:56 8,1 C 82 % 1005,0 hPa 0,0 l/m 3,2 km/h (1 Bft) S-SO 157 5,2 C 8,1 C
26.11.2012 20:01 8,2 C 82 % 1004,8 hPa 0,0 l/m 2,9 km/h (1 Bft) SO 135 5,3 C 8,2 C
26.11.2012 20:06 8,2 C 82 % 1004,7 hPa 0,0 l/m 6,8 km/h (2 Bft) S-SO 157 5,3 C 7,2 C
26.11.2012 20:11 8,3 C 82 % 1004,8 hPa 0,0 l/m 1,4 km/h (1 Bft) S 180 5,4 C 8,3 C
26.11.2012 20:16 8,3 C 81 % 1004,8 hPa 0,0 l/m 0,0 km/h (0 Bft) S-SO 157 5,2 C 8,3 C
26.11.2012 20:21 8,3 C 81 % 1004,8 hPa 0,0 l/m 5,8 km/h (2 Bft) SO 135 5,2 C 7,6 C
26.11.2012 20:26 8,4 C 81 % 1004,8 hPa 0,0 l/m 1,4 km/h (1 Bft) SO 135 5,3 C 8,4 C
26.11.2012 20:31 8,4 C 81 % 1004,8 hPa 0,0 l/m 1,1 km/h (1 Bft) SO 135 5,3 C 8,4 C
26.11.2012 20:36 8,3 C 81 % 1004,8 hPa 0,0 l/m 0,0 km/h (0 Bft) SO 135 5,2 C 8,3 C
26.11.2012 20:41 8,3 C 81 % 1004,8 hPa 0,0 l/m 2,2 km/h (1 Bft) S-SO 157 5,2 C 8,3 C
26.11.2012 20:46 8,3 C 81 % 1004,8 hPa 0,0 l/m 0,0 km/h (0 Bft) S-SO 157 5,2 C 8,3 C
26.11.2012 20:51 8,3 C 81 % 1004,8 hPa 0,0 l/m 0,0 km/h (0 Bft) S-SO 157 5,2 C 8,3 C
26.11.2012 20:56 8,3 C 82 % 1004,8 hPa 0,0 l/m 0,0 km/h (0 Bft) S-SO 157 5,4 C 8,3 C
26.11.2012 21:01 8,3 C 82 % 1004,8 hPa 0,0 l/m 0,0 km/h (0 Bft) S-SO 157 5,4 C 8,3 C
26.11.2012 21:06 8,3 C 82 % 1004,8 hPa 0,0 l/m 1,4 km/h (1 Bft) SO 135 5,4 C 8,3 C
26.11.2012 21:11 8,3 C 82 % 1004,8 hPa 0,0 l/m 0,0 km/h (0 Bft) SO 135 5,4 C 8,3 C
26.11.2012 21:16 8,3 C 83 % 1004,8 hPa 0,0 l/m 1,1 km/h (1 Bft) S-SO 157 5,6 C 8,3 C
26.11.2012 21:21 8,2 C 83 % 1004,9 hPa 0,5 l/m 0,0 km/h (0 Bft) S 180 5,5 C 8,2 C
26.11.2012 21:26 8,2 C 83 % 1004,8 hPa 0,0 l/m 0,0 km/h (0 Bft) S-SO 157 5,5 C 8,2 C
26.11.2012 21:31 8,1 C 84 % 1004,9 hPa 0,0 l/m 2,9 km/h (1 Bft) S-SW 202 5,6 C 8,1 C
26.11.2012 21:36 8,1 C 84 % 1004,8 hPa 0,0 l/m 7,2 km/h (2 Bft) S 180 5,6 C 7,0 C
26.11.2012 21:41 7,9 C 84 % 1004,7 hPa 0,0 l/m 4,7 km/h (1 Bft) S-SO 157 5,4 C 7,5 C
26.11.2012 21:46 7,9 C 85 % 1004,8 hPa 0,0 l/m 3,2 km/h (1 Bft) S-SO 157 5,5 C 7,9 C
26.11.2012 21:51 7,8 C 85 % 1004,7 hPa 0,0 l/m 3,6 km/h (1 Bft) S 180 5,4 C 7,8 C
26.11.2012 21:56 7,8 C 86 % 1004,7 hPa 0,0 l/m 0,0 km/h (0 Bft) S-SO 157 5,6 C 7,8 C
26.11.2012 22:01 7,6 C 86 % 1004,7 hPa 0,0 l/m 3,2 km/h (1 Bft) SW 225 5,4 C 7,6 C
26.11.2012 22:06 7,6 C 86 % 1004,7 hPa 0,0 l/m 2,5 km/h (1 Bft) SW 225 5,4 C 7,6 C
26.11.2012 22:11 7,6 C 86 % 1004,6 hPa 0,5 l/m 2,9 km/h (1 Bft) S 180 5,4 C 7,6 C
26.11.2012 22:16 7,6 C 86 % 1004,7 hPa 0,0 l/m 4,7 km/h (1 Bft) S 180 5,4 C 7,1 C
26.11.2012 22:21 7,5 C 87 % 1004,4 hPa 0,0 l/m 1,8 km/h (1 Bft) S 180 5,5 C 7,5 C
26.11.2012 22:26 7,5 C 87 % 1004,5 hPa 0,0 l/m 0,0 km/h (0 Bft) S-SW 202 5,5 C 7,5 C
26.11.2012 22:31 7,4 C 87 % 1004,5 hPa 0,0 l/m 2,9 km/h (1 Bft) S-SW 202 5,4 C 7,4 C
26.11.2012 22:36 7,4 C 88 % 1004,5 hPa 0,0 l/m 2,9 km/h (1 Bft) SW 225 5,5 C 7,4 C
26.11.2012 22:41 7,4 C 88 % 1004,5 hPa 0,0 l/m 7,9 km/h (2 Bft) S 180 5,5 C 6,0 C
26.11.2012 22:46 7,4 C 88 % 1004,5 hPa 0,0 l/m 4,0 km/h (1 Bft) S-SW 202 5,5 C 7,4 C
26.11.2012 22:51 7,4 C 88 % 1004,6 hPa 0,5 l/m 0,0 km/h (0 Bft) S-SO 157 5,5 C 7,4 C
26.11.2012 22:56 7,4 C 88 % 1004,6 hPa 0,0 l/m 0,0 km/h (0 Bft) S 180 5,5 C 7,4 C
26.11.2012 23:01 7,4 C 88 % 1004,6 hPa 0,0 l/m 5,4 km/h (1 Bft) W-SW 247 5,5 C 6,7 C
26.11.2012 23:06 7,4 C 89 % 1004,8 hPa 0,0 l/m 3,2 km/h (1 Bft) S 180 5,7 C 7,4 C
26.11.2012 23:11 7,4 C 89 % 1004,5 hPa 0,0 l/m 4,7 km/h (1 Bft) S-SO 157 5,7 C 6,9 C
26.11.2012 23:16 7,4 C 89 % 1004,7 hPa 0,0 l/m 11,2 km/h (2 Bft) S 180 5,7 C 5,3 C
26.11.2012 23:21 7,4 C 89 % 1004,5 hPa 0,0 l/m 6,1 km/h (2 Bft) S-SW 202 5,7 C 6,5 C
26.11.2012 23:26 7,4 C 89 % 1004,8 hPa 0,0 l/m 9,7 km/h (2 Bft) S-SW 202 5,7 C 5,6 C
26.11.2012 23:31 7,4 C 90 % 1004,7 hPa 0,0 l/m 8,6 km/h (2 Bft) S-SW 202 5,9 C 5,8 C
26.11.2012 23:36 7,4 C 90 % 1004,6 hPa 0,5 l/m 7,2 km/h (2 Bft) S-SW 202 5,9 C 6,1 C
26.11.2012 23:41 7,4 C 90 % 1004,7 hPa 0,0 l/m 6,5 km/h (2 Bft) S-SW 202 5,9 C 6,3 C
26.11.2012 23:46 7,4 C 90 % 1004,6 hPa 0,0 l/m 4,7 km/h (1 Bft) S-SO 157 5,9 C 6,9 C
26.11.2012 23:51 7,4 C 90 % 1004,7 hPa 0,0 l/m 4,7 km/h (1 Bft) S 180 5,9 C 6,9 C
26.11.2012 23:56 7,4 C 90 % 1004,7 hPa 0,0 l/m 4,3 km/h (1 Bft) S 180 5,9 C 7,4 C
_ Min-Zeit 07:51 15:41 22:21 - 04:01 - - 07:06 08:41
Minimum _ 2,8 C 72 % 1004,4 hPa - 0,0 km/h (0 Bft) - - 1,0 C -0,9 C
_ Max-Zeit 15:41 09:26 04:31 21:21 01:51 - - 16:06 15:41
Maximum _ 10,7 C 90 % 1012,2 hPa 0,5 l/m 20,2 km/h
W (4 Bft)
- - 6,1 C 10,7 C
Durchschnitt _ 7,0 C 81 % 1009,1 hPa #2,1 l/m 5,8 km/h (1 Bft) S-SW - 3,9 C 6,1 C
(c) by David Heller